sensor_id;sensor_type;location;lat;lon;timestamp;P1;durP1;ratioP1;P2;durP2;ratioP2
37169;SDS011;23062;13.952;100.608;2023-07-02T00:03:34;3.00;;;2.00;;
37169;SDS011;23062;13.952;100.608;2023-07-02T00:08:02;3.00;;;2.00;;
37169;SDS011;23062;13.952;100.608;2023-07-02T00:12:29;4.00;;;2.00;;
37169;SDS011;23062;13.952;100.608;2023-07-02T00:16:59;4.00;;;2.00;;
37169;SDS011;23062;13.952;100.608;2023-07-02T00:21:29;5.00;;;3.00;;
37169;SDS011;23062;13.952;100.608;2023-07-02T00:26:02;6.00;;;4.00;;
37169;SDS011;23062;13.952;100.608;2023-07-02T00:30:29;10.00;;;6.53;;
37169;SDS011;23062;13.952;100.608;2023-07-02T00:34:58;3.00;;;2.00;;
37169;SDS011;23062;13.952;100.608;2023-07-02T00:39:24;4.00;;;2.00;;
37169;SDS011;23062;13.952;100.608;2023-07-02T00:43:50;3.00;;;2.00;;
37169;SDS011;23062;13.952;100.608;2023-07-02T00:48:20;2.00;;;1.00;;
37169;SDS011;23062;13.952;100.608;2023-07-02T00:52:50;2.00;;;1.00;;
37169;SDS011;23062;13.952;100.608;2023-07-02T00:57:16;2.00;;;1.00;;
37169;SDS011;23062;13.952;100.608;2023-07-02T01:01:52;2.00;;;1.00;;
37169;SDS011;23062;13.952;100.608;2023-07-02T01:06:22;1.00;;;0.00;;
37169;SDS011;23062;13.952;100.608;2023-07-02T01:10:52;1.00;;;0.00;;
37169;SDS011;23062;13.952;100.608;2023-07-02T01:15:27;2.00;;;1.00;;
37169;SDS011;23062;13.952;100.608;2023-07-02T01:19:53;1.00;;;0.00;;
37169;SDS011;23062;13.952;100.608;2023-07-02T01:24:22;1.00;;;0.00;;
37169;SDS011;23062;13.952;100.608;2023-07-02T01:28:49;1.00;;;0.00;;
37169;SDS011;23062;13.952;100.608;2023-07-02T01:33:16;2.00;;;1.00;;
37169;SDS011;23062;13.952;100.608;2023-07-02T01:37:50;1.00;;;0.00;;
37169;SDS011;23062;13.952;100.608;2023-07-02T01:42:17;1.00;;;0.00;;
37169;SDS011;23062;13.952;100.608;2023-07-02T01:46:43;2.00;;;1.00;;
37169;SDS011;23062;13.952;100.608;2023-07-02T01:51:18;1.00;;;0.00;;
37169;SDS011;23062;13.952;100.608;2023-07-02T01:55:44;1.00;;;0.00;;
37169;SDS011;23062;13.952;100.608;2023-07-02T02:00:19;2.00;;;1.00;;
37169;SDS011;23062;13.952;100.608;2023-07-02T02:04:47;1.00;;;0.00;;
37169;SDS011;23062;13.952;100.608;2023-07-02T02:09:15;1.00;;;0.00;;
37169;SDS011;23062;13.952;100.608;2023-07-02T02:13:41;2.00;;;1.00;;
37169;SDS011;23062;13.952;100.608;2023-07-02T02:18:09;1.00;;;0.00;;
37169;SDS011;23062;13.952;100.608;2023-07-02T02:22:36;2.00;;;1.00;;
37169;SDS011;23062;13.952;100.608;2023-07-02T02:27:02;1.00;;;0.00;;
37169;SDS011;23062;13.952;100.608;2023-07-02T02:31:36;2.00;;;1.00;;
37169;SDS011;23062;13.952;100.608;2023-07-02T02:36:11;1.00;;;0.00;;
37169;SDS011;23062;13.952;100.608;2023-07-02T02:40:38;2.00;;;1.00;;
37169;SDS011;23062;13.952;100.608;2023-07-02T02:45:07;1.00;;;0.00;;
37169;SDS011;23062;13.952;100.608;2023-07-02T02:49:36;1.00;;;0.00;;
37169;SDS011;23062;13.952;100.608;2023-07-02T02:54:02;3.00;;;1.00;;
37169;SDS011;23062;13.952;100.608;2023-07-02T02:58:29;1.00;;;0.00;;
37169;SDS011;23062;13.952;100.608;2023-07-02T03:02:56;1.00;;;0.00;;
37169;SDS011;23062;13.952;100.608;2023-07-02T03:07:24;3.00;;;1.00;;
37169;SDS011;23062;13.952;100.608;2023-07-02T03:11:50;2.00;;;1.00;;
37169;SDS011;23062;13.952;100.608;2023-07-02T03:16:21;1.00;;;0.00;;
37169;SDS011;23062;13.952;100.608;2023-07-02T03:20:48;3.00;;;1.00;;
37169;SDS011;23062;13.952;100.608;2023-07-02T03:25:14;2.00;;;1.00;;
37169;SDS011;23062;13.952;100.608;2023-07-02T03:29:40;0.00;;;0.00;;
37169;SDS011;23062;13.952;100.608;2023-07-02T03:34:08;4.00;;;2.00;;
37169;SDS011;23062;13.952;100.608;2023-07-02T03:38:36;1.00;;;0.00;;
37169;SDS011;23062;13.952;100.608;2023-07-02T03:43:10;1.00;;;0.00;;
37169;SDS011;23062;13.952;100.608;2023-07-02T03:47:36;1.00;;;0.00;;
37169;SDS011;23062;13.952;100.608;2023-07-02T03:52:03;1.00;;;0.00;;
37169;SDS011;23062;13.952;100.608;2023-07-02T03:56:32;1.00;;;0.00;;
37169;SDS011;23062;13.952;100.608;2023-07-02T04:00:59;0.00;;;0.00;;
37169;SDS011;23062;13.952;100.608;2023-07-02T04:05:34;3.00;;;2.00;;
37169;SDS011;23062;13.952;100.608;2023-07-02T04:10:15;2.00;;;1.00;;
37169;SDS011;23062;13.952;100.608;2023-07-02T04:14:43;3.00;;;2.00;;
37169;SDS011;23062;13.952;100.608;2023-07-02T04:19:17;2.00;;;1.00;;
37169;SDS011;23062;13.952;100.608;2023-07-02T04:23:46;2.00;;;1.00;;
37169;SDS011;23062;13.952;100.608;2023-07-02T04:28:20;2.00;;;1.00;;
37169;SDS011;23062;13.952;100.608;2023-07-02T04:32:48;2.00;;;1.00;;
37169;SDS011;23062;13.952;100.608;2023-07-02T04:37:15;4.00;;;2.00;;
37169;SDS011;23062;13.952;100.608;2023-07-02T04:41:49;1.00;;;0.00;;
37169;SDS011;23062;13.952;100.608;2023-07-02T04:46:23;1.00;;;0.00;;
37169;SDS011;23062;13.952;100.608;2023-07-02T04:50:57;4.00;;;1.87;;
37169;SDS011;23062;13.952;100.608;2023-07-02T04:55:25;2.00;;;1.00;;
37169;SDS011;23062;13.952;100.608;2023-07-02T04:59:51;3.00;;;2.00;;
37169;SDS011;23062;13.952;100.608;2023-07-02T05:04:18;4.00;;;2.00;;
37169;SDS011;23062;13.952;100.608;2023-07-02T05:08:44;4.00;;;2.00;;
37169;SDS011;23062;13.952;100.608;2023-07-02T05:13:11;2.00;;;1.00;;
37169;SDS011;23062;13.952;100.608;2023-07-02T05:17:44;1.00;;;0.00;;
37169;SDS011;23062;13.952;100.608;2023-07-02T05:22:18;2.00;;;1.00;;
37169;SDS011;23062;13.952;100.608;2023-07-02T05:26:54;2.00;;;1.00;;
37169;SDS011;23062;13.952;100.608;2023-07-02T05:31:22;2.00;;;1.00;;
37169;SDS011;23062;13.952;100.608;2023-07-02T05:35:50;8.00;;;4.67;;
37169;SDS011;23062;13.952;100.608;2023-07-02T05:40:18;2.00;;;1.00;;
37169;SDS011;23062;13.952;100.608;2023-07-02T05:44:44;2.00;;;1.00;;
37169;SDS011;23062;13.952;100.608;2023-07-02T05:49:17;2.00;;;1.00;;
37169;SDS011;23062;13.952;100.608;2023-07-02T05:53:45;4.00;;;2.00;;
37169;SDS011;23062;13.952;100.608;2023-07-02T05:58:12;2.00;;;1.00;;
37169;SDS011;23062;13.952;100.608;2023-07-02T06:02:41;4.00;;;2.00;;
37169;SDS011;23062;13.952;100.608;2023-07-02T06:07:16;1.00;;;0.00;;
37169;SDS011;23062;13.952;100.608;2023-07-02T06:11:42;2.00;;;1.00;;
37169;SDS011;23062;13.952;100.608;2023-07-02T06:16:11;2.00;;;1.00;;
37169;SDS011;23062;13.952;100.608;2023-07-02T06:20:39;1.00;;;0.00;;
37169;SDS011;23062;13.952;100.608;2023-07-02T06:25:10;2.00;;;1.00;;
37169;SDS011;23062;13.952;100.608;2023-07-02T06:29:41;2.00;;;1.00;;
37169;SDS011;23062;13.952;100.608;2023-07-02T06:34:15;1.00;;;0.00;;
37169;SDS011;23062;13.952;100.608;2023-07-02T06:38:42;1.00;;;0.00;;
37169;SDS011;23062;13.952;100.608;2023-07-02T06:43:15;2.00;;;1.00;;
37169;SDS011;23062;13.952;100.608;2023-07-02T06:47:40;2.00;;;1.00;;
37169;SDS011;23062;13.952;100.608;2023-07-02T06:52:07;2.00;;;1.00;;
37169;SDS011;23062;13.952;100.608;2023-07-02T06:56:36;2.00;;;1.00;;
37169;SDS011;23062;13.952;100.608;2023-07-02T07:01:03;2.00;;;1.00;;
37169;SDS011;23062;13.952;100.608;2023-07-02T07:05:32;2.00;;;1.00;;
37169;SDS011;23062;13.952;100.608;2023-07-02T07:09:58;2.00;;;1.00;;
37169;SDS011;23062;13.952;100.608;2023-07-02T07:14:31;2.00;;;1.00;;
37169;SDS011;23062;13.952;100.608;2023-07-02T07:19:04;3.00;;;2.00;;
37169;SDS011;23062;13.952;100.608;2023-07-02T07:23:38;2.00;;;1.00;;
37169;SDS011;23062;13.952;100.608;2023-07-02T07:28:04;3.00;;;2.00;;
37169;SDS011;23062;13.952;100.608;2023-07-02T07:32:32;4.00;;;2.00;;
37169;SDS011;23062;13.952;100.608;2023-07-02T07:37:05;2.00;;;1.00;;
37169;SDS011;23062;13.952;100.608;2023-07-02T07:41:31;2.00;;;1.00;;
37169;SDS011;23062;13.952;100.608;2023-07-02T07:45:57;2.00;;;1.00;;
37169;SDS011;23062;13.952;100.608;2023-07-02T07:50:27;5.00;;;2.80;;
37169;SDS011;23062;13.952;100.608;2023-07-02T07:54:54;2.00;;;1.00;;
37169;SDS011;23062;13.952;100.608;2023-07-02T07:59:21;2.00;;;1.00;;
37169;SDS011;23062;13.952;100.608;2023-07-02T08:03:53;5.00;;;3.00;;
37169;SDS011;23062;13.952;100.608;2023-07-02T08:08:19;2.00;;;1.00;;
37169;SDS011;23062;13.952;100.608;2023-07-02T08:12:47;2.00;;;1.00;;
37169;SDS011;23062;13.952;100.608;2023-07-02T08:17:18;2.00;;;1.00;;
37169;SDS011;23062;13.952;100.608;2023-07-02T08:21:46;3.00;;;2.00;;
37169;SDS011;23062;13.952;100.608;2023-07-02T08:26:11;4.00;;;2.00;;
37169;SDS011;23062;13.952;100.608;2023-07-02T08:30:37;3.00;;;2.00;;
37169;SDS011;23062;13.952;100.608;2023-07-02T08:35:09;2.00;;;1.00;;
37169;SDS011;23062;13.952;100.608;2023-07-02T08:39:38;2.00;;;1.00;;
37169;SDS011;23062;13.952;100.608;2023-07-02T08:44:06;2.00;;;1.00;;
37169;SDS011;23062;13.952;100.608;2023-07-02T08:48:35;3.00;;;2.00;;
37169;SDS011;23062;13.952;100.608;2023-07-02T08:53:04;2.00;;;1.00;;
37169;SDS011;23062;13.952;100.608;2023-07-02T08:57:34;4.00;;;2.00;;
37169;SDS011;23062;13.952;100.608;2023-07-02T09:02:00;3.00;;;1.00;;
37169;SDS011;23062;13.952;100.608;2023-07-02T09:06:26;2.00;;;1.00;;
37169;SDS011;23062;13.952;100.608;2023-07-02T09:11:05;2.00;;;1.00;;
37169;SDS011;23062;13.952;100.608;2023-07-02T09:15:25;2.00;;;1.00;;
37169;SDS011;23062;13.952;100.608;2023-07-02T09:19:59;2.00;;;1.00;;
37169;SDS011;23062;13.952;100.608;2023-07-02T09:24:27;2.00;;;1.00;;
37169;SDS011;23062;13.952;100.608;2023-07-02T09:29:00;5.00;;;3.00;;
37169;SDS011;23062;13.952;100.608;2023-07-02T09:33:27;2.00;;;1.00;;
37169;SDS011;23062;13.952;100.608;2023-07-02T09:37:55;3.00;;;2.00;;
37169;SDS011;23062;13.952;100.608;2023-07-02T09:42:28;3.00;;;2.00;;
37169;SDS011;23062;13.952;100.608;2023-07-02T09:46:58;3.00;;;2.00;;
37169;SDS011;23062;13.952;100.608;2023-07-02T09:51:28;2.00;;;1.00;;
37169;SDS011;23062;13.952;100.608;2023-07-02T09:55:54;2.00;;;1.00;;
37169;SDS011;23062;13.952;100.608;2023-07-02T10:00:22;2.00;;;1.00;;
37169;SDS011;23062;13.952;100.608;2023-07-02T10:04:49;10.00;;;7.00;;
37169;SDS011;23062;13.952;100.608;2023-07-02T10:09:19;7.00;;;5.00;;
37169;SDS011;23062;13.952;100.608;2023-07-02T10:13:46;5.00;;;4.00;;
37169;SDS011;23062;13.952;100.608;2023-07-02T10:18:15;3.00;;;2.00;;
37169;SDS011;23062;13.952;100.608;2023-07-02T10:22:44;3.00;;;2.00;;
37169;SDS011;23062;13.952;100.608;2023-07-02T10:27:10;3.00;;;2.00;;
37169;SDS011;23062;13.952;100.608;2023-07-02T10:31:48;3.00;;;2.00;;
37169;SDS011;23062;13.952;100.608;2023-07-02T10:36:22;5.00;;;3.00;;
37169;SDS011;23062;13.952;100.608;2023-07-02T10:40:58;3.00;;;2.00;;
37169;SDS011;23062;13.952;100.608;2023-07-02T10:45:33;3.00;;;2.00;;
37169;SDS011;23062;13.952;100.608;2023-07-02T10:49:59;2.00;;;1.00;;
37169;SDS011;23062;13.952;100.608;2023-07-02T10:54:25;2.00;;;1.00;;
37169;SDS011;23062;13.952;100.608;2023-07-02T10:58:53;4.00;;;2.00;;
37169;SDS011;23062;13.952;100.608;2023-07-02T11:03:23;4.00;;;3.00;;
37169;SDS011;23062;13.952;100.608;2023-07-02T11:07:54;4.00;;;2.80;;
37169;SDS011;23062;13.952;100.608;2023-07-02T11:12:32;2.00;;;1.00;;
37169;SDS011;23062;13.952;100.608;2023-07-02T11:17:06;2.00;;;1.00;;
37169;SDS011;23062;13.952;100.608;2023-07-02T11:21:34;2.00;;;1.00;;
37169;SDS011;23062;13.952;100.608;2023-07-02T11:26:01;1.00;;;0.00;;
37169;SDS011;23062;13.952;100.608;2023-07-02T11:30:27;2.00;;;1.00;;
37169;SDS011;23062;13.952;100.608;2023-07-02T11:34:55;1.00;;;0.00;;
37169;SDS011;23062;13.952;100.608;2023-07-02T11:39:23;1.00;;;0.00;;
37169;SDS011;23062;13.952;100.608;2023-07-02T11:43:49;1.00;;;0.00;;
37169;SDS011;23062;13.952;100.608;2023-07-02T11:48:23;2.00;;;1.00;;
37169;SDS011;23062;13.952;100.608;2023-07-02T11:52:50;1.00;;;0.00;;
37169;SDS011;23062;13.952;100.608;2023-07-02T11:57:24;1.00;;;0.00;;
37169;SDS011;23062;13.952;100.608;2023-07-02T12:01:51;2.00;;;1.00;;
37169;SDS011;23062;13.952;100.608;2023-07-02T12:06:25;1.00;;;0.00;;
37169;SDS011;23062;13.952;100.608;2023-07-02T12:10:52;2.00;;;1.00;;
37169;SDS011;23062;13.952;100.608;2023-07-02T12:15:18;1.00;;;0.00;;
37169;SDS011;23062;13.952;100.608;2023-07-02T12:19:53;1.00;;;0.00;;
37169;SDS011;23062;13.952;100.608;2023-07-02T12:24:20;1.00;;;0.00;;
37169;SDS011;23062;13.952;100.608;2023-07-02T12:28:49;1.00;;;0.00;;
37169;SDS011;23062;13.952;100.608;2023-07-02T12:33:15;1.00;;;0.00;;
37169;SDS011;23062;13.952;100.608;2023-07-02T12:37:47;2.00;;;1.00;;
37169;SDS011;23062;13.952;100.608;2023-07-02T12:42:14;2.00;;;1.00;;
37169;SDS011;23062;13.952;100.608;2023-07-02T12:46:41;4.00;;;2.00;;
37169;SDS011;23062;13.952;100.608;2023-07-02T12:51:16;1.00;;;0.00;;
37169;SDS011;23062;13.952;100.608;2023-07-02T12:55:44;2.00;;;1.00;;
37169;SDS011;23062;13.952;100.608;2023-07-02T13:00:10;2.00;;;1.00;;
37169;SDS011;23062;13.952;100.608;2023-07-02T13:04:38;2.00;;;1.00;;
37169;SDS011;23062;13.952;100.608;2023-07-02T13:09:12;3.00;;;1.00;;
37169;SDS011;23062;13.952;100.608;2023-07-02T13:13:39;3.00;;;2.00;;
37169;SDS011;23062;13.952;100.608;2023-07-02T13:18:14;2.00;;;1.00;;
37169;SDS011;23062;13.952;100.608;2023-07-02T13:22:42;2.00;;;1.00;;
37169;SDS011;23062;13.952;100.608;2023-07-02T13:27:10;4.00;;;2.00;;
37169;SDS011;23062;13.952;100.608;2023-07-02T13:31:37;2.00;;;1.00;;
37169;SDS011;23062;13.952;100.608;2023-07-02T13:36:03;3.00;;;2.00;;
37169;SDS011;23062;13.952;100.608;2023-07-02T13:40:31;2.00;;;1.00;;
37169;SDS011;23062;13.952;100.608;2023-07-02T13:45:06;2.00;;;1.00;;
37169;SDS011;23062;13.952;100.608;2023-07-02T13:49:33;2.00;;;1.00;;
37169;SDS011;23062;13.952;100.608;2023-07-02T13:53:59;2.00;;;1.00;;
37169;SDS011;23062;13.952;100.608;2023-07-02T13:58:26;1.00;;;0.00;;
37169;SDS011;23062;13.952;100.608;2023-07-02T14:02:59;2.00;;;1.00;;
37169;SDS011;23062;13.952;100.608;2023-07-02T14:07:26;2.00;;;1.00;;
37169;SDS011;23062;13.952;100.608;2023-07-02T14:16:34;1.00;;;0.00;;
37169;SDS011;23062;13.952;100.608;2023-07-02T14:21:02;2.00;;;1.00;;
37169;SDS011;23062;13.952;100.608;2023-07-02T14:25:29;2.00;;;1.00;;
37169;SDS011;23062;13.952;100.608;2023-07-02T14:29:57;2.00;;;1.00;;
37169;SDS011;23062;13.952;100.608;2023-07-02T14:34:24;3.00;;;1.00;;
37169;SDS011;23062;13.952;100.608;2023-07-02T14:38:54;2.00;;;1.00;;
37169;SDS011;23062;13.952;100.608;2023-07-02T14:43:24;3.00;;;2.00;;
37169;SDS011;23062;13.952;100.608;2023-07-02T14:47:51;3.00;;;2.00;;
37169;SDS011;23062;13.952;100.608;2023-07-02T14:52:21;2.00;;;1.00;;
37169;SDS011;23062;13.952;100.608;2023-07-02T14:56:57;2.00;;;1.00;;
37169;SDS011;23062;13.952;100.608;2023-07-02T15:01:28;2.00;;;1.00;;
37169;SDS011;23062;13.952;100.608;2023-07-02T15:06:09;2.00;;;1.00;;
37169;SDS011;23062;13.952;100.608;2023-07-02T15:10:42;2.00;;;1.00;;
37169;SDS011;23062;13.952;100.608;2023-07-02T15:15:11;3.00;;;2.00;;
37169;SDS011;23062;13.952;100.608;2023-07-02T15:19:38;2.00;;;1.00;;
37169;SDS011;23062;13.952;100.608;2023-07-02T15:24:04;3.00;;;1.00;;
37169;SDS011;23062;13.952;100.608;2023-07-02T15:28:40;2.00;;;1.00;;
37169;SDS011;23062;13.952;100.608;2023-07-02T15:33:05;2.00;;;1.00;;
37169;SDS011;23062;13.952;100.608;2023-07-02T15:37:32;2.00;;;1.00;;
37169;SDS011;23062;13.952;100.608;2023-07-02T15:42:02;3.00;;;1.00;;
37169;SDS011;23062;13.952;100.608;2023-07-02T15:46:29;2.00;;;1.00;;
37169;SDS011;23062;13.952;100.608;2023-07-02T15:50:57;2.00;;;1.00;;
37169;SDS011;23062;13.952;100.608;2023-07-02T15:55:25;3.00;;;2.00;;
37169;SDS011;23062;13.952;100.608;2023-07-02T15:59:53;2.00;;;1.00;;
37169;SDS011;23062;13.952;100.608;2023-07-02T16:04:19;4.00;;;2.00;;
37169;SDS011;23062;13.952;100.608;2023-07-02T16:08:55;2.00;;;1.00;;
37169;SDS011;23062;13.952;100.608;2023-07-02T16:13:46;2.00;;;1.00;;
37169;SDS011;23062;13.952;100.608;2023-07-02T16:18:18;2.00;;;1.00;;
37169;SDS011;23062;13.952;100.608;2023-07-02T16:22:46;2.00;;;1.00;;
37169;SDS011;23062;13.952;100.608;2023-07-02T16:27:16;4.00;;;2.00;;
37169;SDS011;23062;13.952;100.608;2023-07-02T16:31:44;5.00;;;2.80;;
37169;SDS011;23062;13.952;100.608;2023-07-02T16:36:18;2.00;;;1.00;;
37169;SDS011;23062;13.952;100.608;2023-07-02T16:40:45;2.00;;;1.00;;
37169;SDS011;23062;13.952;100.608;2023-07-02T16:45:18;4.00;;;2.00;;
37169;SDS011;23062;13.952;100.608;2023-07-02T16:49:43;2.00;;;1.00;;
37169;SDS011;23062;13.952;100.608;2023-07-02T16:54:19;2.00;;;1.00;;
37169;SDS011;23062;13.952;100.608;2023-07-02T16:58:51;2.00;;;1.00;;
37169;SDS011;23062;13.952;100.608;2023-07-02T17:03:18;3.00;;;2.00;;
37169;SDS011;23062;13.952;100.608;2023-07-02T17:07:45;2.00;;;1.00;;
37169;SDS011;23062;13.952;100.608;2023-07-02T17:12:17;2.00;;;1.00;;
37169;SDS011;23062;13.952;100.608;2023-07-02T17:16:44;3.00;;;2.00;;
37169;SDS011;23062;13.952;100.608;2023-07-02T17:21:12;2.00;;;1.00;;
37169;SDS011;23062;13.952;100.608;2023-07-02T17:25:39;3.00;;;1.00;;
37169;SDS011;23062;13.952;100.608;2023-07-02T17:30:07;2.00;;;1.00;;
37169;SDS011;23062;13.952;100.608;2023-07-02T17:34:36;4.00;;;2.00;;
37169;SDS011;23062;13.952;100.608;2023-07-02T17:39:04;3.00;;;1.00;;
37169;SDS011;23062;13.952;100.608;2023-07-02T17:43:31;3.00;;;2.00;;
37169;SDS011;23062;13.952;100.608;2023-07-02T17:47:57;4.00;;;2.00;;
37169;SDS011;23062;13.952;100.608;2023-07-02T17:52:23;3.00;;;2.00;;
37169;SDS011;23062;13.952;100.608;2023-07-02T17:56:56;3.00;;;2.00;;
37169;SDS011;23062;13.952;100.608;2023-07-02T18:01:22;4.00;;;2.00;;
37169;SDS011;23062;13.952;100.608;2023-07-02T18:05:48;3.00;;;2.00;;
37169;SDS011;23062;13.952;100.608;2023-07-02T18:10:15;3.00;;;2.00;;
37169;SDS011;23062;13.952;100.608;2023-07-02T18:14:50;6.00;;;4.00;;
37169;SDS011;23062;13.952;100.608;2023-07-02T18:19:17;4.00;;;3.00;;
37169;SDS011;23062;13.952;100.608;2023-07-02T18:23:53;5.00;;;3.00;;
37169;SDS011;23062;13.952;100.608;2023-07-02T18:28:24;3.00;;;2.00;;
37169;SDS011;23062;13.952;100.608;2023-07-02T18:32:53;5.00;;;3.00;;
37169;SDS011;23062;13.952;100.608;2023-07-02T18:37:20;5.00;;;3.00;;
37169;SDS011;23062;13.952;100.608;2023-07-02T18:41:52;4.00;;;3.00;;
37169;SDS011;23062;13.952;100.608;2023-07-02T18:46:27;7.00;;;4.00;;
37169;SDS011;23062;13.952;100.608;2023-07-02T18:50:56;3.00;;;2.00;;
37169;SDS011;23062;13.952;100.608;2023-07-02T18:55:26;3.00;;;2.00;;
37169;SDS011;23062;13.952;100.608;2023-07-02T18:59:58;5.00;;;3.00;;
37169;SDS011;23062;13.952;100.608;2023-07-02T19:04:33;3.00;;;2.00;;
37169;SDS011;23062;13.952;100.608;2023-07-02T19:09:00;4.00;;;2.00;;
37169;SDS011;23062;13.952;100.608;2023-07-02T19:13:26;4.00;;;2.00;;
37169;SDS011;23062;13.952;100.608;2023-07-02T19:17:59;3.00;;;2.00;;
37169;SDS011;23062;13.952;100.608;2023-07-02T19:22:26;3.00;;;1.00;;
37169;SDS011;23062;13.952;100.608;2023-07-02T19:26:53;2.00;;;1.00;;
37169;SDS011;23062;13.952;100.608;2023-07-02T19:31:20;2.00;;;1.00;;
37169;SDS011;23062;13.952;100.608;2023-07-02T19:35:54;1.00;;;0.00;;
37169;SDS011;23062;13.952;100.608;2023-07-02T19:40:20;2.00;;;1.00;;
37169;SDS011;23062;13.952;100.608;2023-07-02T19:44:54;3.00;;;1.87;;
37169;SDS011;23062;13.952;100.608;2023-07-02T19:49:24;3.00;;;1.00;;
37169;SDS011;23062;13.952;100.608;2023-07-02T19:53:51;2.00;;;1.00;;
37169;SDS011;23062;13.952;100.608;2023-07-02T19:58:18;1.00;;;0.00;;
37169;SDS011;23062;13.952;100.608;2023-07-02T20:02:47;1.00;;;0.00;;
37169;SDS011;23062;13.952;100.608;2023-07-02T20:07:13;1.00;;;0.00;;
37169;SDS011;23062;13.952;100.608;2023-07-02T20:11:46;1.00;;;0.00;;
37169;SDS011;23062;13.952;100.608;2023-07-02T20:16:14;2.00;;;1.00;;
37169;SDS011;23062;13.952;100.608;2023-07-02T20:20:44;3.00;;;1.00;;
37169;SDS011;23062;13.952;100.608;2023-07-02T20:25:16;1.00;;;0.00;;
37169;SDS011;23062;13.952;100.608;2023-07-02T20:29:43;1.00;;;0.00;;
37169;SDS011;23062;13.952;100.608;2023-07-02T20:34:20;1.00;;;0.00;;
37169;SDS011;23062;13.952;100.608;2023-07-02T20:38:50;2.00;;;1.00;;
37169;SDS011;23062;13.952;100.608;2023-07-02T20:43:15;4.00;;;2.00;;
37169;SDS011;23062;13.952;100.608;2023-07-02T20:47:42;1.00;;;0.00;;
37169;SDS011;23062;13.952;100.608;2023-07-02T20:52:08;2.00;;;1.00;;
37169;SDS011;23062;13.952;100.608;2023-07-02T20:56:42;2.00;;;1.00;;
37169;SDS011;23062;13.952;100.608;2023-07-02T21:01:10;1.00;;;0.00;;
37169;SDS011;23062;13.952;100.608;2023-07-02T21:05:38;4.00;;;2.00;;
37169;SDS011;23062;13.952;100.608;2023-07-02T21:10:05;2.00;;;1.00;;
37169;SDS011;23062;13.952;100.608;2023-07-02T21:14:47;4.00;;;2.00;;
37169;SDS011;23062;13.952;100.608;2023-07-02T21:19:10;3.00;;;1.00;;
37169;SDS011;23062;13.952;100.608;2023-07-02T21:23:46;3.00;;;2.00;;
37169;SDS011;23062;13.952;100.608;2023-07-02T21:28:13;4.00;;;3.00;;
37169;SDS011;23062;13.952;100.608;2023-07-02T21:32:41;6.00;;;3.73;;
37169;SDS011;23062;13.952;100.608;2023-07-02T21:37:17;5.00;;;3.00;;
37169;SDS011;23062;13.952;100.608;2023-07-02T21:41:45;4.00;;;2.00;;
37169;SDS011;23062;13.952;100.608;2023-07-02T21:46:14;4.00;;;2.00;;
37169;SDS011;23062;13.952;100.608;2023-07-02T21:50:43;3.00;;;2.00;;
37169;SDS011;23062;13.952;100.608;2023-07-02T21:55:09;4.00;;;2.00;;
37169;SDS011;23062;13.952;100.608;2023-07-02T21:59:38;3.00;;;2.00;;
37169;SDS011;23062;13.952;100.608;2023-07-02T22:04:04;3.00;;;2.00;;
37169;SDS011;23062;13.952;100.608;2023-07-02T22:08:39;5.00;;;3.00;;
37169;SDS011;23062;13.952;100.608;2023-07-02T22:13:10;3.00;;;2.00;;
37169;SDS011;23062;13.952;100.608;2023-07-02T22:17:45;3.00;;;2.00;;
37169;SDS011;23062;13.952;100.608;2023-07-02T22:22:12;5.00;;;3.00;;
37169;SDS011;23062;13.952;100.608;2023-07-02T22:26:39;4.00;;;2.00;;
37169;SDS011;23062;13.952;100.608;2023-07-02T22:31:12;3.00;;;2.00;;
37169;SDS011;23062;13.952;100.608;2023-07-02T22:35:38;6.00;;;4.00;;
37169;SDS011;23062;13.952;100.608;2023-07-02T22:40:05;5.00;;;3.00;;
37169;SDS011;23062;13.952;100.608;2023-07-02T22:44:34;4.00;;;3.00;;
37169;SDS011;23062;13.952;100.608;2023-07-02T22:49:00;6.00;;;4.00;;
37169;SDS011;23062;13.952;100.608;2023-07-02T22:53:30;6.00;;;4.00;;
37169;SDS011;23062;13.952;100.608;2023-07-02T22:58:00;6.00;;;4.00;;
37169;SDS011;23062;13.952;100.608;2023-07-02T23:02:27;8.00;;;5.00;;
37169;SDS011;23062;13.952;100.608;2023-07-02T23:06:54;6.00;;;4.00;;
37169;SDS011;23062;13.952;100.608;2023-07-02T23:11:24;6.00;;;4.00;;
37169;SDS011;23062;13.952;100.608;2023-07-02T23:15:54;6.00;;;4.00;;
37169;SDS011;23062;13.952;100.608;2023-07-02T23:20:21;6.00;;;4.00;;
37169;SDS011;23062;13.952;100.608;2023-07-02T23:24:49;8.00;;;5.00;;
37169;SDS011;23062;13.952;100.608;2023-07-02T23:29:17;7.00;;;4.00;;
37169;SDS011;23062;13.952;100.608;2023-07-02T23:33:45;5.00;;;3.00;;
37169;SDS011;23062;13.952;100.608;2023-07-02T23:38:13;5.00;;;4.00;;
37169;SDS011;23062;13.952;100.608;2023-07-02T23:42:41;6.00;;;4.00;;
37169;SDS011;23062;13.952;100.608;2023-07-02T23:47:07;6.00;;;4.00;;
37169;SDS011;23062;13.952;100.608;2023-07-02T23:51:35;6.00;;;4.00;;
37169;SDS011;23062;13.952;100.608;2023-07-02T23:56:03;6.00;;;4.00;;
